createdAt,value
2024-03-16T00:02:15.420Z,11.70
2024-03-16T00:04:44.731Z,11.69
2024-03-16T00:07:12.185Z,11.65
2024-03-16T00:09:40.311Z,11.62
2024-03-16T00:12:07.731Z,11.62
2024-03-16T00:14:34.973Z,11.64
2024-03-16T00:17:02.667Z,11.67
2024-03-16T00:19:29.779Z,11.61
2024-03-16T00:21:57.498Z,11.55
2024-03-16T00:24:27.516Z,11.52
2024-03-16T00:26:55.750Z,11.49
2024-03-16T00:29:23.340Z,11.44
2024-03-16T00:31:53.143Z,11.45
2024-03-16T00:34:20.949Z,11.44
2024-03-16T00:36:49.100Z,11.47
2024-03-16T00:39:20.490Z,11.48
2024-03-16T00:41:49.102Z,11.48
2024-03-16T00:44:16.224Z,11.49
2024-03-16T00:46:43.348Z,11.48
2024-03-16T00:49:11.004Z,11.51
2024-03-16T00:51:38.322Z,11.48
2024-03-16T00:54:07.464Z,11.45
2024-03-16T00:56:35.224Z,11.41
2024-03-16T00:59:02.744Z,11.39
2024-03-16T01:01:35.736Z,11.39
2024-03-16T01:04:03.944Z,11.36
2024-03-16T01:06:31.282Z,11.36
2024-03-16T01:09:00.977Z,11.39
2024-03-16T01:11:28.310Z,11.36
2024-03-16T01:13:58.684Z,11.30
2024-03-16T01:16:28.790Z,11.24
2024-03-16T01:18:56.130Z,11.23
2024-03-16T01:21:23.700Z,11.24
2024-03-16T01:23:50.960Z,11.22
2024-03-16T01:26:18.135Z,11.27
2024-03-16T01:28:45.222Z,11.30
2024-03-16T01:31:14.940Z,11.32
2024-03-16T01:33:42.466Z,11.36
2024-03-16T01:36:09.618Z,11.39
2024-03-16T01:38:37.852Z,11.40
2024-03-16T01:41:04.974Z,11.39
2024-03-16T01:43:32.365Z,11.37
2024-03-16T01:45:59.674Z,11.36
2024-03-16T01:48:27.136Z,11.34
2024-03-16T01:50:55.822Z,11.34
2024-03-16T01:53:23.061Z,11.34
2024-03-16T01:55:50.411Z,11.31
2024-03-16T01:58:17.639Z,11.31
2024-03-16T02:00:49.321Z,11.32
2024-03-16T02:03:16.668Z,11.32
2024-03-16T02:05:43.940Z,11.30
2024-03-16T02:08:13.081Z,11.29
2024-03-16T02:10:40.370Z,11.26
2024-03-16T02:13:07.815Z,11.22
2024-03-16T02:15:35.144Z,11.21
2024-03-16T02:18:02.855Z,11.24
2024-03-16T02:20:33.014Z,11.19
2024-03-16T02:23:01.245Z,11.09
2024-03-16T02:25:29.122Z,11.00
2024-03-16T02:27:56.529Z,10.99
2024-03-16T02:30:24.022Z,10.96
2024-03-16T02:32:51.185Z,10.99
2024-03-16T02:35:18.459Z,10.98
2024-03-16T02:37:45.610Z,10.93
2024-03-16T02:40:15.685Z,10.86
2024-03-16T02:42:44.473Z,10.77
2024-03-16T02:45:12.523Z,10.68
2024-03-16T02:47:40.191Z,10.68
2024-03-16T02:50:10.644Z,10.65
2024-03-16T02:52:38.755Z,10.62
2024-03-16T02:55:06.804Z,10.59
2024-03-16T02:57:34.023Z,10.57
2024-03-16T03:00:01.270Z,10.56
2024-03-16T03:02:29.601Z,10.45
2024-03-16T03:04:56.731Z,10.41
2024-03-16T03:07:24.268Z,10.36
2024-03-16T03:09:51.537Z,10.30
2024-03-16T03:12:19.207Z,10.23
2024-03-16T03:14:46.392Z,10.19
2024-03-16T03:17:13.502Z,10.18
2024-03-16T03:19:40.678Z,10.17
2024-03-16T03:22:07.880Z,10.22
2024-03-16T03:24:35.369Z,10.23
2024-03-16T03:27:06.234Z,10.25
2024-03-16T03:29:36.093Z,10.25
2024-03-16T03:32:03.908Z,10.21
2024-03-16T03:34:33.023Z,10.18
2024-03-16T03:37:00.122Z,10.18
2024-03-16T03:39:27.341Z,10.14
2024-03-16T03:41:55.631Z,10.14
2024-03-16T03:44:22.847Z,10.15
2024-03-16T03:46:53.538Z,10.08
2024-03-16T03:49:41.687Z,10.09
2024-03-16T03:52:09.142Z,10.11
2024-03-16T03:54:38.299Z,10.15
2024-03-16T03:57:07.224Z,10.16
2024-03-16T03:59:34.431Z,10.14
2024-03-16T04:02:01.579Z,10.13
2024-03-16T04:04:28.672Z,10.09
2024-03-16T04:06:56.187Z,10.01
2024-03-16T04:09:26.493Z,9.98
2024-03-16T04:11:56.890Z,10.00
2024-03-16T04:14:24.385Z,10.05
2024-03-16T04:16:51.533Z,10.07
2024-03-16T04:19:18.746Z,10.05
2024-03-16T04:21:51.521Z,10.03
2024-03-16T04:24:18.764Z,10.03
2024-03-16T04:26:46.323Z,10.00
2024-03-16T04:29:13.423Z,10.02
2024-03-16T04:31:40.517Z,10.01
2024-03-16T04:34:07.691Z,9.96
2024-03-16T04:36:34.896Z,9.89
2024-03-16T04:39:02.064Z,9.84
2024-03-16T04:41:34.612Z,9.82
2024-03-16T04:44:01.657Z,9.74
2024-03-16T04:46:34.724Z,9.83
2024-03-16T04:49:02.073Z,9.90
2024-03-16T04:51:29.260Z,9.89
2024-03-16T04:53:56.434Z,9.87
2024-03-16T04:56:27.101Z,9.82
2024-03-16T04:58:54.165Z,9.80
2024-03-16T05:01:24.912Z,9.76
2024-03-16T05:03:52.171Z,9.76
2024-03-16T05:06:20.597Z,9.79
2024-03-16T05:08:48.772Z,9.85
2024-03-16T05:11:15.968Z,9.83
2024-03-16T05:13:43.381Z,9.83
2024-03-16T05:16:10.577Z,9.77
2024-03-16T05:18:37.755Z,9.66
2024-03-16T05:21:06.128Z,9.62
2024-03-16T05:23:33.369Z,9.66
2024-03-16T05:26:03.615Z,9.68
2024-03-16T05:28:30.780Z,9.69
2024-03-16T05:30:58.083Z,9.72
2024-03-16T05:33:25.217Z,9.72
2024-03-16T05:35:52.589Z,9.72
2024-03-16T05:38:19.711Z,9.71
2024-03-16T05:40:48.792Z,9.68
2024-03-16T05:43:16.422Z,9.72
2024-03-16T05:45:44.122Z,9.76
2024-03-16T05:48:11.753Z,9.74
2024-03-16T05:50:42.479Z,9.67
2024-03-16T05:53:09.764Z,9.55
2024-03-16T05:55:36.928Z,9.52
2024-03-16T05:58:04.316Z,9.44
2024-03-16T06:00:31.606Z,9.33
2024-03-16T06:03:02.126Z,9.21
2024-03-16T06:05:29.227Z,9.18
2024-03-16T06:07:56.574Z,9.17
2024-03-16T06:10:23.823Z,9.13
2024-03-16T06:12:51.423Z,9.16
2024-03-16T06:15:18.564Z,9.22
2024-03-16T06:17:45.970Z,9.22
2024-03-16T06:20:16.684Z,9.27
2024-03-16T06:22:43.908Z,9.35
2024-03-16T06:25:12.951Z,9.33
2024-03-16T06:27:51.171Z,9.30
2024-03-16T06:30:19.331Z,9.28
2024-03-16T06:33:05.279Z,9.23
2024-03-16T06:35:33.488Z,9.15
2024-03-16T06:38:00.659Z,9.11
2024-03-16T06:40:27.863Z,9.06
2024-03-16T06:42:55.058Z,9.06
2024-03-16T06:45:22.169Z,9.05
2024-03-16T06:47:49.290Z,9.05
2024-03-16T06:50:16.566Z,9.09
2024-03-16T06:52:43.670Z,9.10
2024-03-16T06:55:10.809Z,9.14
2024-03-16T06:57:38.026Z,9.18
2024-03-16T07:00:06.136Z,9.18
2024-03-16T07:02:33.471Z,9.20
2024-03-16T07:05:02.022Z,9.22
2024-03-16T07:07:29.623Z,9.21
2024-03-16T07:09:56.755Z,9.20
2024-03-16T07:12:23.974Z,9.23
2024-03-16T07:14:51.107Z,9.21
2024-03-16T07:17:18.495Z,9.24
2024-03-16T07:19:45.886Z,9.24
2024-03-16T07:22:14.389Z,9.22
2024-03-16T07:24:43.366Z,9.19
2024-03-16T07:27:11.222Z,9.19
2024-03-16T07:29:38.485Z,9.18
2024-03-16T07:32:05.929Z,9.11
2024-03-16T07:34:34.961Z,9.11
2024-03-16T07:37:02.614Z,9.10
2024-03-16T07:39:29.748Z,9.07
2024-03-16T07:41:56.978Z,9.06
2024-03-16T07:44:24.082Z,9.08
2024-03-16T07:46:51.280Z,9.16
2024-03-16T07:49:18.399Z,9.20
2024-03-16T07:51:46.490Z,9.30
2024-03-16T07:54:13.803Z,9.39
2024-03-16T07:56:41.396Z,9.45
2024-03-16T07:59:11.037Z,9.52
2024-03-16T08:01:38.538Z,9.60
2024-03-16T08:04:05.727Z,9.66
2024-03-16T08:06:33.006Z,9.69
2024-03-16T08:09:00.226Z,9.73
2024-03-16T08:11:29.309Z,9.75
2024-03-16T08:13:56.493Z,9.75
2024-03-16T08:16:23.744Z,9.79
2024-03-16T08:18:50.936Z,9.84
2024-03-16T08:21:18.732Z,9.89
2024-03-16T08:23:45.824Z,9.92
2024-03-16T08:26:14.455Z,9.96
2024-03-16T08:28:41.628Z,9.97
2024-03-16T08:31:09.721Z,10.02
2024-03-16T08:33:37.298Z,10.10
2024-03-16T08:36:07.332Z,10.15
2024-03-16T08:38:34.867Z,10.16
2024-03-16T08:41:05.507Z,10.16
2024-03-16T08:43:33.574Z,10.12
2024-03-16T08:46:08.193Z,10.05
2024-03-16T08:48:35.743Z,10.08
2024-03-16T08:51:05.955Z,10.16
2024-03-16T08:53:33.302Z,10.23
2024-03-16T08:56:01.372Z,10.28
2024-03-16T08:58:29.105Z,10.31
2024-03-16T09:00:56.512Z,10.31
2024-03-16T09:03:23.879Z,10.32
2024-03-16T09:05:51.145Z,10.35
2024-03-16T09:08:18.249Z,10.33
2024-03-16T09:10:45.705Z,10.31
2024-03-16T09:13:13.245Z,10.30
2024-03-16T09:15:40.769Z,10.29
2024-03-16T09:18:08.108Z,10.25
2024-03-16T09:20:36.825Z,10.24
2024-03-16T09:23:04.046Z,10.19
2024-03-16T09:25:31.879Z,10.15
2024-03-16T09:27:59.231Z,10.15
2024-03-16T09:30:26.470Z,10.14
2024-03-16T09:32:53.604Z,10.12
2024-03-16T09:35:20.793Z,10.14
2024-03-16T09:37:48.816Z,10.16
2024-03-16T09:40:16.138Z,10.15
2024-03-16T09:42:43.943Z,10.16
